Time;durP1;ratioP1;P1;durP2;ratioP2;P2;SDS_P1;SDS_P2;PMS_P1;PMS_P2;Temp;Humidity;BMP_temperature;BMP_pressure;BME280_temperature;BME280_humidity;BME280_pressure;Samples;Min_cycle;Max_cycle;Signal;HPM_P1;HPM_P2
2022/02/27 00:00:16;;;;;;;11.30;8.10;;;0.20;99.90;;;0.95;82.17;99303.53;5236160;28;20241;-60
2022/02/27 00:02:49;;;;;;;10.17;7.13;;;0.20;99.90;;;0.93;82.46;99302.44;5232170;28;20222;-60
2022/02/27 00:05:22;;;;;;;9.77;8.20;;;0.20;99.90;;;0.89;83.10;99307.13;5240147;28;20242;-60
2022/02/27 00:07:57;;;;;;;8.83;7.10;;;0.20;99.90;;;0.91;82.78;99304.75;5234649;28;20221;-61
2022/02/27 00:10:30;;;;;;;8.57;6.37;;;0.20;99.90;;;0.88;83.43;99299.38;5242096;28;20229;-62
2022/02/27 00:13:03;;;;;;;11.57;7.50;;;0.20;99.90;;;0.89;83.00;99297.03;5236065;28;20232;-61
2022/02/27 00:15:36;;;;;;;12.10;8.07;;;0.20;99.90;;;0.89;82.83;99296.16;5241745;28;20199;-61
2022/02/27 00:18:09;;;;;;;12.47;7.60;;;0.10;99.90;;;0.86;83.78;99300.84;5244604;28;20202;-61
2022/02/27 00:20:44;;;;;;;11.43;7.60;;;0.20;99.90;;;0.84;83.26;99303.16;5234781;28;20196;-60
2022/02/27 00:23:20;;;;;;;9.40;7.33;;;0.20;99.90;;;0.83;83.03;99297.91;5243987;28;20320;-61
2022/02/27 00:25:53;;;;;;;11.00;7.63;;;0.20;99.90;;;0.76;83.42;99303.88;5239160;28;20648;-62
2022/02/27 00:28:26;;;;;;;9.63;7.90;;;0.10;99.90;;;0.75;83.35;99302.06;5232647;28;20699;-62
2022/02/27 00:31:00;;;;;;;13.10;7.87;;;0.00;99.90;;;0.76;83.46;99301.34;5239202;28;20209;-62
2022/02/27 00:33:33;;;;;;;12.43;8.60;;;0.10;99.90;;;0.69;83.80;99293.81;5233266;28;20236;-62
2022/02/27 00:36:06;;;;;;;11.37;8.07;;;0.00;99.90;;;0.72;84.65;99299.19;5240126;28;20200;-62
2022/02/27 00:38:41;;;;;;;11.13;7.70;;;0.10;99.90;;;0.74;83.70;99296.84;5237081;28;20581;-62
2022/02/27 00:41:14;;;;;;;10.93;8.00;;;0.10;99.90;;;0.74;84.52;99300.25;5239132;28;20219;-62
2022/02/27 00:43:47;;;;;;;12.90;8.47;;;0.10;99.90;;;0.66;85.56;99303.50;5235003;28;20223;-62
2022/02/27 00:46:20;;;;;;;12.80;8.43;;;0.10;99.90;;;0.73;84.60;99303.50;5237941;28;20203;-61
2022/02/27 00:48:53;;;;;;;9.37;7.47;;;0.10;99.90;;;0.79;84.03;99303.31;5236891;28;20757;-62
2022/02/27 00:51:27;;;;;;;9.87;7.80;;;0.00;99.90;;;0.78;84.08;99304.94;5240193;28;20203;-61
2022/02/27 00:54:01;;;;;;;8.23;6.83;;;0.00;99.90;;;0.76;84.04;99296.31;5232565;28;20724;-62
2022/02/27 00:56:35;;;;;;;10.33;7.20;;;0.00;99.90;;;0.73;84.16;99292.53;5243315;28;20657;-62
2022/02/27 00:59:08;;;;;;;10.50;7.20;;;-0.10;99.90;;;0.74;83.54;99287.69;5242800;28;20201;-62
2022/02/27 01:01:41;;;;;;;8.83;7.33;;;-0.10;99.90;;;0.67;83.62;99291.09;5237418;28;20552;-61
2022/02/27 01:04:15;;;;;;;9.10;7.37;;;-0.20;99.90;;;0.62;84.07;99283.72;5238330;28;20697;-61
2022/02/27 01:06:48;;;;;;;11.57;8.13;;;-0.20;99.90;;;0.59;83.30;99288.41;5236410;28;20207;-62
2022/02/27 01:09:22;;;;;;;10.07;7.63;;;-0.20;99.90;;;0.51;83.95;99290.00;5235534;28;20227;-62
2022/02/27 01:11:55;;;;;;;9.20;7.37;;;-0.30;99.90;;;0.47;84.74;99281.94;5231432;28;20197;-61
2022/02/27 01:14:28;;;;;;;10.57;7.03;;;-0.30;99.90;;;0.36;83.86;99286.56;5248552;28;20202;-61
2022/02/27 01:17:05;;;;;;;10.60;7.47;;;-0.40;99.90;;;0.37;83.95;99287.47;5235250;28;20569;-61
2022/02/27 01:19:39;;;;;;;11.27;7.70;;;-0.40;99.90;;;0.34;84.05;99279.56;5237338;28;20202;-61
2022/02/27 01:22:12;;;;;;;11.57;7.80;;;-0.40;99.90;;;0.26;84.33;99276.16;5236716;28;20222;-61
2022/02/27 01:24:46;;;;;;;9.57;7.53;;;-0.50;99.90;;;0.27;83.73;99272.91;5236615;28;20217;-62
2022/02/27 01:27:20;;;;;;;11.20;7.77;;;-0.50;99.90;;;0.19;84.45;99263.53;5233931;28;20209;-61
2022/02/27 01:29:53;;;;;;;10.50;7.20;;;-0.50;99.90;;;0.27;84.34;99262.84;5236301;28;20206;-61
2022/02/27 01:32:26;;;;;;;9.67;7.43;;;-0.50;99.90;;;0.28;83.88;99264.63;5239862;28;20217;-61
2022/02/27 01:34:59;;;;;;;11.63;7.43;;;-0.50;99.90;;;0.35;83.98;99262.16;5233629;28;20539;-61
2022/02/27 01:37:32;;;;;;;11.10;7.57;;;-0.50;99.90;;;0.28;84.65;99262.13;5238188;28;20296;-61
2022/02/27 01:40:09;;;;;;;9.80;7.60;;;-0.50;99.90;;;0.27;84.48;99266.97;5238932;28;20201;-61
2022/02/27 01:42:42;;;;;;;9.53;8.07;;;-0.60;99.90;;;0.26;83.81;99256.03;5235713;28;20221;-61
2022/02/27 01:45:16;;;;;;;11.00;7.87;;;-0.60;99.90;;;0.17;85.28;99258.34;5233368;28;20209;-61
2022/02/27 01:47:49;;;;;;;12.00;8.50;;;-0.60;99.90;;;0.12;84.50;99256.00;5242149;28;20668;-61
2022/02/27 01:50:22;;;;;;;10.97;8.50;;;-0.60;99.90;;;0.17;84.21;99264.97;5241749;28;20229;-61
2022/02/27 01:52:55;;;;;;;13.13;7.97;;;-0.60;99.90;;;0.02;84.68;99264.03;5241400;28;20565;-61
2022/02/27 01:55:30;;;;;;;12.17;9.03;;;-0.70;99.90;;;-0.01;83.57;99262.06;5242735;28;20705;-61
2022/02/27 01:58:03;;;;;;;11.53;8.63;;;-0.80;99.90;;;-0.05;84.20;99252.34;5245709;28;20200;-61
2022/02/27 02:00:36;;;;;;;12.07;8.07;;;-0.80;99.90;;;-0.12;84.56;99274.94;5241326;28;20697;-61
2022/02/27 02:03:09;;;;;;;13.10;8.37;;;-0.80;99.90;;;-0.18;84.63;99265.75;5235051;28;20707;-61
2022/02/27 02:05:43;;;;;;;13.37;8.70;;;-0.90;99.90;;;-0.18;84.07;99259.13;5235659;28;20196;-64
2022/02/27 02:08:16;;;;;;;11.90;8.53;;;-0.90;99.90;;;-0.18;85.36;99264.16;5244765;28;20575;-61
2022/02/27 02:10:51;;;;;;;11.40;8.40;;;-0.90;99.90;;;-0.24;84.66;99263.41;5242417;28;20201;-61
2022/02/27 02:13:24;;;;;;;10.73;8.20;;;-1.00;99.90;;;-0.26;85.04;99254.78;5243350;28;20220;-61
2022/02/27 02:15:58;;;;;;;12.50;7.93;;;-0.90;99.90;;;-0.21;85.08;99251.22;5239565;28;20207;-61
2022/02/27 02:18:31;;;;;;;10.43;7.43;;;-0.90;99.90;;;-0.18;84.26;99244.03;5236834;28;20566;-61
2022/02/27 02:21:05;;;;;;;11.37;8.13;;;-0.90;99.90;;;-0.20;84.78;99249.59;5235752;28;20193;-61
2022/02/27 02:23:38;;;;;;;10.73;7.37;;;-0.90;99.90;;;-0.16;84.38;99240.13;5232119;28;20221;-61
2022/02/27 02:26:12;;;;;;;12.97;7.37;;;-0.90;99.90;;;-0.16;85.38;99237.59;5238398;28;20608;-61
2022/02/27 02:28:45;;;;;;;11.80;7.73;;;-0.90;99.90;;;-0.12;84.18;99244.78;5238866;28;20231;-61
2022/02/27 02:31:18;;;;;;;12.00;7.80;;;-1.00;99.90;;;-0.23;84.76;99240.06;5237735;28;20208;-61
2022/02/27 02:33:51;;;;;;;12.43;8.50;;;-1.00;99.90;;;-0.26;85.53;99239.72;5239941;28;20691;-61
2022/02/27 02:36:25;;;;;;;9.67;7.97;;;-1.00;99.90;;;-0.24;85.61;99241.69;5240071;28;20202;-61
2022/02/27 02:38:59;;;;;;;9.60;8.43;;;-1.00;99.90;;;-0.26;84.63;99239.72;5240553;28;20195;-61
2022/02/27 02:41:32;;;;;;;10.93;8.13;;;-1.00;99.90;;;-0.33;85.64;99249.75;5240434;28;20205;-61
2022/02/27 02:44:07;;;;;;;10.53;8.10;;;-1.00;99.90;;;-0.33;84.56;99242.22;5234133;28;20224;-61
2022/02/27 02:46:41;;;;;;;10.80;8.30;;;-1.10;99.90;;;-0.37;84.78;99251.00;5229816;28;20204;-61
2022/02/27 02:49:15;;;;;;;9.00;7.07;;;-1.10;99.90;;;-0.38;85.55;99243.25;5232111;28;20229;-61
2022/02/27 02:51:50;;;;;;;9.43;8.00;;;-1.10;99.90;;;-0.40;85.70;99235.56;5232481;28;20208;-61
2022/02/27 02:54:24;;;;;;;11.97;8.23;;;-1.10;99.90;;;-0.39;85.75;99237.34;5239865;28;20214;-62
2022/02/27 02:56:57;;;;;;;11.70;7.87;;;-1.10;99.90;;;-0.36;85.47;99231.78;5237621;28;20200;-62
2022/02/27 02:59:30;;;;;;;8.53;7.63;;;-1.10;99.90;;;-0.37;86.36;99227.47;5234849;28;20197;-61
2022/02/27 03:02:09;;;;;;;8.70;7.50;;;-1.10;99.90;;;-0.33;85.79;99229.66;5236078;28;20269;-61
2022/02/27 03:04:43;;;;;;;9.13;7.73;;;-1.00;99.90;;;-0.31;85.31;99219.09;5242296;28;20206;-61
2022/02/27 03:07:17;;;;;;;7.50;6.70;;;-1.00;99.90;;;-0.32;85.51;99226.41;5237992;28;20215;-61
2022/02/27 03:09:50;;;;;;;8.00;7.23;;;-1.10;99.90;;;-0.36;85.67;99236.81;5233282;28;20221;-61
2022/02/27 03:12:24;;;;;;;9.57;7.60;;;-1.10;99.90;;;-0.37;85.68;99228.41;5241002;28;20703;-61
2022/02/27 03:14:57;;;;;;;8.47;7.53;;;-1.10;99.90;;;-0.40;85.24;99227.09;5237975;28;20192;-61
2022/02/27 03:17:30;;;;;;;9.97;7.10;;;-1.10;99.90;;;-0.54;84.96;99220.44;5234565;28;20205;-61
2022/02/27 03:20:05;;;;;;;12.27;7.60;;;-1.20;99.90;;;-0.60;85.35;99225.59;5235246;28;20202;-61
2022/02/27 03:22:39;;;;;;;7.50;6.70;;;-1.30;99.90;;;-0.59;86.71;99222.38;5235296;28;20216;-61
2022/02/27 03:25:12;;;;;;;8.23;7.47;;;-1.30;99.90;;;-0.53;86.90;99233.16;5236438;28;20575;-61
2022/02/27 03:27:45;;;;;;;11.00;8.20;;;-1.20;99.90;;;-0.56;86.66;99232.78;5235654;28;20585;-61
2022/02/27 03:30:19;;;;;;;10.27;8.37;;;-1.20;99.90;;;-0.50;87.60;99235.13;5230363;28;20231;-62
2022/02/27 03:32:52;;;;;;;12.33;9.17;;;-1.20;99.90;;;-0.57;87.91;99231.00;5240632;28;20220;-60
2022/02/27 03:35:25;;;;;;;11.27;8.83;;;-1.20;99.90;;;-0.60;87.13;99230.63;5237803;28;20196;-61
2022/02/27 03:37:59;;;;;;;10.30;9.20;;;-1.20;99.90;;;-0.57;86.93;99225.03;5238869;28;20201;-61
2022/02/27 03:40:32;;;;;;;9.47;7.80;;;-1.20;99.90;;;-0.62;86.30;99227.03;5239248;28;20200;-61
2022/02/27 03:43:05;;;;;;;9.63;7.57;;;-1.30;99.90;;;-0.60;86.55;99225.59;5241881;28;20680;-61
2022/02/27 03:45:39;;;;;;;9.67;7.67;;;-1.30;99.90;;;-0.66;87.08;99219.81;5234002;28;20193;-62
2022/02/27 03:48:12;;;;;;;11.67;7.53;;;-1.40;99.90;;;-0.70;86.66;99213.53;5241450;28;20193;-62
2022/02/27 03:50:45;;;;;;;12.80;8.50;;;-1.40;99.90;;;-0.73;87.45;99224.81;5238263;28;20229;-62
2022/02/27 03:53:23;;;;;;;9.83;7.80;;;-1.40;99.90;;;-0.73;86.40;99227.31;5239339;28;20215;-61
2022/02/27 03:55:56;;;;;;;10.00;7.87;;;-1.40;99.90;;;-0.69;87.88;99234.50;5237014;28;20200;-62
2022/02/27 03:58:29;;;;;;;9.73;8.00;;;-1.30;99.90;;;-0.69;87.81;99214.41;5242462;28;20197;-62
2022/02/27 04:01:02;;;;;;;10.93;8.43;;;-1.30;99.90;;;-0.66;88.71;99217.31;5245074;28;20207;-61
2022/02/27 04:03:35;;;;;;;9.70;7.90;;;-1.30;99.90;;;-0.68;88.68;99219.63;5236590;28;20221;-61
2022/02/27 04:06:08;;;;;;;13.13;8.73;;;-1.30;99.90;;;-0.67;88.99;99218.03;5242472;28;20201;-61
2022/02/27 04:08:43;;;;;;;11.57;8.33;;;-1.30;99.90;;;-0.66;88.21;99219.81;5237612;28;20645;-61
2022/02/27 04:11:16;;;;;;;9.67;8.73;;;-1.30;99.90;;;-0.61;88.64;99228.81;5243938;28;20570;-61
2022/02/27 04:13:49;;;;;;;13.67;8.77;;;-1.30;99.90;;;-0.57;89.20;99228.50;5231174;28;20213;-61
2022/02/27 04:16:22;;;;;;;13.77;8.50;;;-1.20;99.90;;;-0.47;89.59;99233.00;5240703;28;20208;-61
2022/02/27 04:18:56;;;;;;;12.30;9.10;;;-1.20;99.90;;;-0.50;89.15;99237.66;5241592;28;20599;-62
2022/02/27 04:21:29;;;;;;;11.20;8.90;;;-1.20;99.90;;;-0.48;89.36;99236.22;5238174;28;20207;-62
2022/02/27 04:24:04;;;;;;;10.07;8.40;;;-1.10;99.90;;;-0.49;89.37;99237.84;5239720;28;20217;-62
2022/02/27 04:26:37;;;;;;;14.13;9.57;;;-1.10;99.90;;;-0.56;89.29;99241.94;5237659;28;20199;-62
2022/02/27 04:29:11;;;;;;;13.00;8.90;;;-1.20;99.90;;;-0.50;88.76;99235.13;5238208;28;20200;-61
2022/02/27 04:31:44;;;;;;;9.10;8.07;;;-1.10;99.90;;;-0.49;88.75;99236.94;5236862;28;20196;-62
2022/02/27 04:34:18;;;;;;;9.80;8.37;;;-1.10;99.90;;;-0.49;88.32;99245.38;5238121;28;20205;-61
2022/02/27 04:36:51;;;;;;;10.63;8.93;;;-1.20;99.90;;;-0.46;87.99;99240.72;5237389;28;20197;-62
2022/02/27 04:39:25;;;;;;;12.57;8.47;;;-1.10;99.90;;;-0.47;87.71;99248.97;5237042;28;20212;-62
2022/02/27 04:41:58;;;;;;;11.70;8.47;;;-1.20;99.90;;;-0.47;87.29;99243.94;5237996;28;20202;-61
2022/02/27 04:44:32;;;;;;;9.67;8.63;;;-1.20;99.90;;;-0.46;88.23;99242.31;5236498;28;20598;-62
2022/02/27 04:47:05;;;;;;;9.00;7.50;;;-1.20;99.90;;;-0.52;87.57;99239.06;5238502;28;20250;-62
2022/02/27 04:49:38;;;;;;;13.00;9.00;;;-1.20;99.90;;;-0.52;88.31;99239.97;5237896;28;20559;-62
2022/02/27 04:52:12;;;;;;;11.10;8.83;;;-1.30;99.90;;;-0.55;88.15;99237.06;5241985;28;20688;-61
2022/02/27 04:54:46;;;;;;;10.80;8.23;;;-1.20;99.90;;;-0.41;87.52;99242.88;5239727;28;20197;-62
2022/02/27 04:57:19;;;;;;;13.23;9.43;;;-1.20;99.90;;;-0.53;89.20;99237.28;5239231;28;20203;-62
2022/02/27 04:59:52;;;;;;;10.47;8.43;;;-1.20;99.90;;;-0.51;88.29;99235.88;5233949;28;20189;-62
2022/02/27 05:02:25;;;;;;;13.73;8.93;;;-1.20;99.90;;;-0.49;89.31;99237.84;5236734;28;20229;-62
2022/02/27 05:04:59;;;;;;;11.43;8.67;;;-1.10;99.90;;;-0.47;88.74;99231.38;5238156;28;20747;-62
2022/02/27 05:07:32;;;;;;;12.80;8.97;;;-1.10;99.90;;;-0.50;89.35;99240.16;5237500;28;20204;-62
2022/02/27 05:10:08;;;;;;;14.00;9.73;;;-1.10;99.90;;;-0.41;89.01;99232.84;5240307;28;20227;-61
2022/02/27 05:12:44;;;;;;;11.63;8.50;;;-1.10;99.90;;;-0.42;88.91;99246.13;5235188;28;20220;-62
2022/02/27 05:15:17;;;;;;;14.07;9.50;;;-1.10;99.90;;;-0.43;89.32;99249.34;5239412;28;20213;-62
2022/02/27 05:17:51;;;;;;;12.00;9.80;;;-1.10;99.90;;;-0.41;89.60;99241.28;5240993;28;20197;-62
2022/02/27 05:20:24;;;;;;;13.23;9.40;;;-1.00;99.90;;;-0.30;89.62;99247.59;5241994;28;20200;-63
2022/02/27 05:23:03;;;;;;;10.37;9.03;;;-0.90;99.90;;;-0.32;89.60;99246.50;5241179;28;20248;-63
2022/02/27 05:25:41;;;;;;;10.73;9.63;;;-0.90;99.90;;;-0.35;90.31;99243.63;5235288;28;21945;-62
2022/02/27 05:28:14;;;;;;;9.97;8.93;;;-0.90;99.90;;;-0.35;89.11;99248.66;5233709;28;20201;-62
2022/02/27 05:30:49;;;;;;;10.77;8.97;;;-1.00;99.90;;;-0.31;88.75;99256.75;5239246;28;20726;-62
2022/02/27 05:33:23;;;;;;;15.63;10.17;;;-0.90;99.90;;;-0.30;89.83;99257.66;5240245;28;20232;-62
2022/02/27 05:35:56;;;;;;;16.10;9.43;;;-0.90;99.90;;;-0.30;88.85;99253.53;5233094;28;20585;-62
2022/02/27 05:38:29;;;;;;;13.03;9.10;;;-0.90;99.90;;;-0.28;88.68;99258.75;5238677;28;20197;-62
2022/02/27 05:41:04;;;;;;;12.80;9.10;;;-0.90;99.90;;;-0.30;88.09;99258.53;5240532;28;20562;-62
2022/02/27 05:43:37;;;;;;;13.03;9.57;;;-0.90;99.90;;;-0.18;88.43;99258.22;5238445;28;20220;-62
2022/02/27 05:46:10;;;;;;;13.57;9.73;;;-0.90;99.90;;;-0.24;88.77;99265.94;5242569;28;20202;-62
2022/02/27 05:48:43;;;;;;;12.53;9.60;;;-0.90;99.90;;;-0.25;88.77;99265.03;5238169;28;20236;-62
2022/02/27 05:51:17;;;;;;;13.50;10.20;;;-0.90;99.90;;;-0.24;89.07;99269.31;5235589;28;20232;-62
2022/02/27 05:53:50;;;;;;;13.07;9.80;;;-0.90;99.90;;;-0.22;88.53;99272.03;5238936;28;20212;-62
2022/02/27 05:56:24;;;;;;;13.67;10.43;;;-0.90;99.90;;;-0.31;87.95;99273.44;5233791;28;20208;-62
2022/02/27 05:58:57;;;;;;;12.03;9.93;;;-1.00;99.90;;;-0.30;88.09;99277.75;5237435;28;20593;-61
2022/02/27 06:01:31;;;;;;;11.43;9.90;;;-1.00;99.90;;;-0.35;87.34;99274.66;5236280;28;20201;-62
2022/02/27 06:04:04;;;;;;;10.37;8.97;;;-1.10;99.90;;;-0.31;88.40;99284.38;5239770;28;20626;-62
2022/02/27 06:06:38;;;;;;;12.13;9.43;;;-1.10;99.90;;;-0.32;87.27;99284.19;5238755;28;20215;-62
2022/02/27 06:09:11;;;;;;;12.03;9.63;;;-1.10;99.90;;;-0.38;87.17;99285.94;5235284;28;20201;-62
2022/02/27 06:11:45;;;;;;;12.93;10.50;;;-1.10;99.90;;;-0.41;88.04;99288.09;5235471;28;20215;-62
2022/02/27 06:14:18;;;;;;;13.93;10.87;;;-1.10;99.90;;;-0.41;88.30;99300.66;5230130;28;20197;-61
2022/02/27 06:16:51;;;;;;;14.73;10.53;;;-1.10;99.90;;;-0.38;88.32;99308.56;5237551;28;20203;-62
2022/02/27 06:19:25;;;;;;;13.57;10.03;;;-1.10;99.90;;;-0.36;87.08;99304.63;5232694;28;20664;-61
2022/02/27 06:21:58;;;;;;;12.60;9.53;;;-1.10;99.90;;;-0.37;86.56;99308.75;5238967;28;20201;-61
2022/02/27 06:24:31;;;;;;;12.47;9.23;;;-1.10;99.90;;;-0.38;86.97;99308.56;5237845;28;20204;-62
2022/02/27 06:27:07;;;;;;;12.57;9.47;;;-1.10;99.90;;;-0.39;88.08;99306.78;5240099;28;20199;-62
2022/02/27 06:29:40;;;;;;;11.73;9.83;;;-1.20;99.90;;;-0.33;87.30;99302.50;5234744;28;20196;-62
2022/02/27 06:32:15;;;;;;;13.03;9.90;;;-1.10;99.90;;;-0.39;87.04;99305.16;5240222;28;20318;-62
2022/02/27 06:34:48;;;;;;;11.60;10.40;;;-1.10;99.90;;;-0.26;87.75;99312.56;5232889;28;20194;-62
2022/02/27 06:37:21;;;;;;;11.57;10.40;;;-1.00;99.90;;;-0.32;86.79;99311.81;5240786;28;20664;-62
2022/02/27 06:39:54;;;;;;;11.83;10.60;;;-1.10;99.90;;;-0.23;87.10;99312.94;5242922;28;20189;-62
2022/02/27 06:42:28;;;;;;;12.93;10.17;;;-1.00;99.90;;;-0.02;87.21;99315.53;5238559;28;20246;-62
2022/02/27 06:45:02;;;;;;;13.50;10.70;;;-0.80;99.90;;;0.35;86.27;99307.41;5237195;28;20204;-62
2022/02/27 06:47:35;;;;;;;16.30;12.10;;;-0.70;99.90;;;0.66;85.78;99298.47;5238567;28;20201;-62
2022/02/27 06:50:10;;;;;;;13.77;12.07;;;-0.50;99.90;;;0.90;85.66;99311.41;5230416;28;20241;-62
2022/02/27 06:52:43;;;;;;;13.30;11.30;;;-0.20;99.90;;;1.09;84.84;99311.97;5235988;28;20226;-62
2022/02/27 06:55:16;;;;;;;12.47;11.20;;;0.20;99.90;;;1.30;84.04;99308.53;5247481;28;20207;-61
2022/02/27 06:57:52;;;;;;;14.97;10.73;;;0.50;99.90;;;1.51;83.05;99312.59;5232241;28;20200;-62
2022/02/27 07:00:25;;;;;;;13.53;11.70;;;0.60;99.90;;;1.61;81.94;99312.06;5230621;28;20193;-62
2022/02/27 07:02:58;;;;;;;13.80;10.40;;;0.80;99.90;;;1.93;80.71;99313.22;5239554;28;20226;-63
2022/02/27 07:05:35;;;;;;;13.63;9.63;;;1.10;99.90;;;2.32;80.68;99309.94;5232001;28;20291;-62
2022/02/27 07:08:08;;;;;;;13.10;9.10;;;1.50;99.90;;;2.52;78.59;99319.75;5236224;28;20583;-63
2022/02/27 07:10:41;;;;;;;11.13;9.97;;;1.60;99.90;;;2.82;77.06;99317.22;5235950;28;20198;-63
2022/02/27 07:13:15;;;;;;;12.57;10.73;;;1.80;99.90;;;2.99;76.76;99322.50;5232901;28;20231;-63
2022/02/27 07:15:48;;;;;;;12.43;10.57;;;2.00;99.90;;;3.20;75.52;99320.50;5232478;28;20205;-63
2022/02/27 07:18:21;;;;;;;12.33;11.03;;;2.20;99.90;;;3.47;74.96;99315.94;5238077;28;20683;-63
2022/02/27 07:20:55;;;;;;;13.63;10.33;;;2.50;99.90;;;3.72;74.21;99321.09;5238894;28;20198;-63
2022/02/27 07:23:28;;;;;;;13.93;10.80;;;2.80;99.90;;;3.89;73.18;99321.25;5232390;28;20237;-63
2022/02/27 07:26:01;;;;;;;14.27;11.23;;;2.90;99.90;;;4.03;73.02;99328.69;5239768;28;20201;-63
2022/02/27 07:28:35;;;;;;;12.10;10.87;;;3.20;99.90;;;4.23;72.55;99325.69;5239298;28;20210;-63
2022/02/27 07:31:08;;;;;;;13.23;11.87;;;3.30;99.90;;;4.39;70.04;99325.69;5236765;28;20675;-63
2022/02/27 07:33:41;;;;;;;14.23;11.70;;;3.50;99.90;;;4.58;70.41;99326.00;5229629;28;20225;-63
2022/02/27 07:36:14;;;;;;;12.73;10.03;;;3.60;99.90;;;4.67;68.96;99332.00;5227941;28;20212;-63
2022/02/27 07:38:47;;;;;;;12.93;10.80;;;3.60;99.90;;;4.74;69.15;99330.97;5239060;28;20201;-63
2022/02/27 07:41:21;;;;;;;12.47;10.63;;;3.70;99.90;;;4.64;68.06;99333.31;5240026;28;20192;-63
2022/02/27 07:43:55;;;;;;;12.57;10.80;;;3.40;99.90;;;4.71;69.17;99336.63;5234577;28;20228;-64
2022/02/27 07:46:28;;;;;;;11.93;10.13;;;3.70;99.90;;;5.13;67.35;99334.19;5234408;28;20204;-63
2022/02/27 07:49:02;;;;;;;11.10;9.47;;;4.10;99.90;;;4.92;68.69;99343.03;5234107;28;20250;-64
2022/02/27 07:51:35;;;;;;;13.83;10.83;;;4.10;99.90;;;5.04;67.65;99342.50;5232077;28;20217;-64
2022/02/27 07:54:08;;;;;;;11.40;10.23;;;4.10;99.90;;;5.05;67.14;99334.13;5235078;28;20224;-64
2022/02/27 07:56:41;;;;;;;12.17;10.80;;;4.20;99.90;;;4.96;66.99;99344.22;5235990;28;20198;-65
2022/02/27 07:59:17;;;;;;;14.27;11.00;;;4.30;99.90;;;5.17;67.68;99345.50;5238834;28;20208;-65
2022/02/27 08:01:50;;;;;;;11.67;10.33;;;4.40;99.90;;;5.32;65.97;99347.09;5234471;28;20197;-65
2022/02/27 08:04:24;;;;;;;13.60;10.50;;;4.30;99.90;;;5.46;66.30;99350.09;5234150;28;20207;-64
2022/02/27 08:06:58;;;;;;;12.17;10.63;;;4.60;99.90;;;5.49;66.55;99346.22;5240115;28;21025;-64
2022/02/27 08:09:32;;;;;;;13.87;10.77;;;4.80;99.90;;;5.54;66.14;99339.09;5234784;28;20210;-64
2022/02/27 08:12:06;;;;;;;11.80;10.60;;;4.90;99.90;;;5.80;66.79;99337.50;5234714;28;21972;-64
2022/02/27 08:14:40;;;;;;;13.83;10.67;;;5.10;99.90;;;6.12;65.29;99339.81;5234440;28;20209;-64
2022/02/27 08:17:16;;;;;;;12.70;11.23;;;5.50;99.90;;;6.40;64.33;99342.53;5230879;28;20632;-64
2022/02/27 08:19:50;;;;;;;11.57;9.70;;;5.80;99.90;;;6.11;63.63;99340.59;5242372;28;20570;-65
2022/02/27 08:22:23;;;;;;;12.80;10.00;;;5.50;99.90;;;5.96;64.19;99344.16;5243943;28;20224;-63
2022/02/27 08:24:57;;;;;;;11.67;9.17;;;5.40;99.90;;;6.31;63.06;99342.53;5238551;28;20193;-63
2022/02/27 08:27:30;;;;;;;10.70;8.97;;;5.70;99.90;;;6.56;62.03;99338.19;5240104;28;20226;-63
2022/02/27 08:30:06;;;;;;;10.80;8.83;;;6.10;99.90;;;6.70;61.87;99345.50;5236531;28;20644;-63
2022/02/27 08:32:42;;;;;;;9.83;8.83;;;6.40;99.90;;;6.55;60.90;99338.91;5239486;28;20660;-64
2022/02/27 08:35:15;;;;;;;10.07;9.07;;;6.20;99.90;;;6.58;61.18;99341.78;5237405;28;20210;-64
2022/02/27 08:37:53;;;;;;;11.33;8.77;;;6.20;99.90;;;6.69;60.67;99346.22;5241441;28;20189;-64
2022/02/27 08:40:26;;;;;;;13.07;9.20;;;6.40;99.90;;;6.60;60.28;99340.25;5236166;28;20665;-64
2022/02/27 08:43:01;;;;;;;9.07;8.17;;;6.30;99.90;;;6.64;60.61;99339.84;5242491;28;20220;-63
2022/02/27 08:45:36;;;;;;;9.43;8.33;;;6.30;99.90;;;6.55;60.73;99338.91;5243939;28;20204;-64
2022/02/27 08:48:09;;;;;;;9.67;7.73;;;6.20;99.90;;;6.49;60.47;99333.25;5240237;28;20207;-63
2022/02/27 08:50:42;;;;;;;10.57;9.43;;;6.10;99.90;;;6.57;61.47;99331.47;5233748;28;20201;-64
2022/02/27 08:53:15;;;;;;;20.43;15.80;;;6.20;99.90;;;6.81;61.52;99343.06;5237727;28;20237;-64
2022/02/27 08:55:49;;;;;;;25.27;17.27;;;6.60;99.90;;;6.87;60.06;99338.59;5235252;28;20679;-63
2022/02/27 08:58:22;;;;;;;17.03;14.77;;;6.60;99.90;;;6.89;59.75;99347.25;5230882;28;20202;-64
2022/02/27 09:00:57;;;;;;;115.70;61.67;;;6.40;99.90;;;6.86;59.47;99342.75;5230599;28;20228;-64
2022/02/27 09:03:30;;;;;;;21.20;15.40;;;6.40;99.90;;;6.92;59.42;99362.78;5230233;28;20215;-64
2022/02/27 09:06:04;;;;;;;9.23;8.27;;;6.40;99.90;;;6.58;59.06;99354.47;5227989;28;21085;-64
2022/02/27 09:08:41;;;;;;;10.37;8.03;;;6.10;99.90;;;6.55;59.81;99361.78;5226745;28;20207;-61
2022/02/27 09:11:15;;;;;;;11.27;7.70;;;5.90;99.90;;;6.19;59.33;99352.38;5233275;28;20197;-59
2022/02/27 09:13:48;;;;;;;9.07;6.80;;;5.70;99.90;;;6.37;58.74;99357.47;5239344;28;20217;-61
2022/02/27 09:16:22;;;;;;;8.03;7.13;;;5.80;99.90;;;6.38;58.37;99347.47;5240622;28;20226;-58
2022/02/27 09:18:56;;;;;;;8.07;7.27;;;5.90;99.90;;;6.51;59.26;99331.75;5239225;28;20287;-59
2022/02/27 09:21:29;;;;;;;10.07;7.63;;;6.10;99.90;;;6.52;57.99;99344.63;5239507;28;20197;-59
2022/02/27 09:24:02;;;;;;;7.80;6.97;;;6.20;99.00;;;6.62;57.08;99336.22;5236002;28;20603;-59
2022/02/27 09:26:36;;;;;;;7.80;6.97;;;6.40;98.20;;;6.47;57.78;99339.84;5245020;28;20201;-59
2022/02/27 09:29:09;;;;;;;19.07;12.93;;;6.20;98.70;;;6.27;58.62;99332.84;5234814;28;20196;-61
2022/02/27 09:31:43;;;;;;;20.53;14.27;;;6.10;99.10;;;6.64;59.70;99327.13;5239993;28;20671;-59
2022/02/27 09:34:17;;;;;;;17.43;11.37;;;6.50;99.60;;;6.89;58.58;99325.25;5241679;28;20210;-60
2022/02/27 09:36:50;;;;;;;12.60;10.27;;;6.60;99.00;;;7.30;57.22;99324.84;5243982;28;20203;-60
2022/02/27 09:39:30;;;;;;;9.87;7.60;;;7.00;98.60;;;7.43;53.95;99323.56;5237271;28;20204;-61
2022/02/27 09:42:04;;;;;;;7.97;7.27;;;7.30;96.60;;;7.34;54.13;99324.38;5235029;28;20204;-61
2022/02/27 09:44:40;;;;;;;8.30;6.43;;;7.10;96.10;;;7.42;53.77;99333.59;5237791;28;20293;-60
2022/02/27 09:47:16;;;;;;;7.20;6.23;;;7.20;96.10;;;7.47;51.92;99329.84;5229359;28;20205;-60
2022/02/27 09:49:49;;;;;;;7.53;6.93;;;7.20;95.50;;;7.34;54.00;99327.78;5229042;28;20319;-61
2022/02/27 09:52:23;;;;;;;8.73;6.90;;;7.10;96.00;;;7.54;52.59;99324.56;5227629;28;20235;-61
2022/02/27 09:54:56;;;;;;;6.80;6.20;;;7.30;95.50;;;7.72;52.10;99335.53;5228536;28;20203;-62
2022/02/27 09:57:30;;;;;;;7.30;6.60;;;7.40;95.10;;;7.49;52.05;99330.84;5236039;28;20206;-61
2022/02/27 10:00:08;;;;;;;7.87;6.67;;;7.10;94.80;;;7.37;52.33;99327.19;5231768;28;20226;-60
2022/02/27 10:03:05;;;;;;;6.83;6.13;;;7.00;95.10;;;7.52;51.56;99340.44;5234562;28;20220;-60
2022/02/27 10:05:42;;;;;;;7.10;6.50;;;7.10;94.90;;;7.20;51.11;99341.75;5233857;28;20189;-61
2022/02/27 10:08:17;;;;;;;6.80;6.23;;;6.70;94.50;;;6.85;52.06;99335.00;5230892;28;20207;-62
2022/02/27 10:10:58;;;;;;;6.40;5.63;;;6.50;94.80;;;6.75;52.19;99339.22;5238464;28;20196;-60
2022/02/27 10:13:33;;;;;;;7.70;6.17;;;6.30;95.00;;;6.64;51.86;99329.66;5242599;28;20551;-61
2022/02/27 10:16:09;;;;;;;5.90;5.40;;;6.10;95.10;;;6.53;51.91;99328.63;5229782;28;20287;-61
2022/02/27 10:18:46;;;;;;;6.80;5.93;;;5.90;95.00;;;6.39;52.77;99331.47;5228030;28;20201;-61
2022/02/27 10:21:25;;;;;;;6.80;5.80;;;5.90;95.20;;;6.51;52.61;99319.06;5235689;28;20200;-60
2022/02/27 10:24:19;;;;;;;7.23;6.50;;;5.90;95.30;;;6.58;52.13;99329.09;5233133;28;20201;-62
2022/02/27 10:26:52;;;;;;;6.63;6.03;;;6.00;95.40;;;6.61;51.95;99318.28;5229327;28;20207;-61
2022/02/27 10:29:26;;;;;;;6.23;5.63;;;6.10;95.00;;;6.62;51.85;99323.53;5232393;28;20203;-60
2022/02/27 10:31:59;;;;;;;7.03;5.60;;;6.00;95.20;;;6.63;51.74;99311.72;5227727;28;20189;-59
2022/02/27 10:34:38;;;;;;;7.27;6.57;;;6.10;94.60;;;6.76;51.96;99317.25;5235001;28;20216;-61
2022/02/27 10:37:17;;;;;;;6.93;6.30;;;6.20;94.90;;;6.47;52.04;99319.53;5232343;28;20204;-61
2022/02/27 10:39:52;;;;;;;6.37;5.73;;;6.10;94.70;;;6.50;50.22;99305.47;5228092;28;20204;-62
2022/02/27 10:42:29;;;;;;;7.00;6.30;;;6.10;93.70;;;6.58;49.78;99313.84;5232359;28;20274;-61
2022/02/27 10:45:04;;;;;;;6.10;5.50;;;6.10;93.10;;;6.53;49.18;99326.09;5228911;28;20204;-60
2022/02/27 10:47:38;;;;;;;6.13;5.53;;;6.10;92.60;;;6.71;46.68;99318.44;5231943;28;20600;-60